Time;durP1;ratioP1;P1;durP2;ratioP2;P2;SDS_P1;SDS_P2;PMS_P1;PMS_P2;Temp;Humidity;BMP_temperature;BMP_pressure;BME280_temperature;BME280_humidity;BME280_pressure;Samples;Min_cycle;Max_cycle;Signal;HPM_P1;HPM_P2
2022/02/28 00:00:17;;;;;;;20.60;12.90;;;128.30;2252.80;;;;;;5070923;28;20031;-63
2022/02/28 00:02:43;;;;;;;22.13;14.25;;;128.30;2252.80;;;;;;5070700;28;20052;-65
2022/02/28 00:05:09;;;;;;;18.52;12.25;;;128.30;2252.80;;;;;;5070672;28;20024;-64
2022/02/28 00:07:35;;;;;;;17.25;11.80;;;128.20;2252.80;;;;;;5070609;28;20103;-64
2022/02/28 00:10:02;;;;;;;18.25;10.60;;;128.20;2252.80;;;;;;5070196;28;20120;-58
2022/02/28 00:12:27;;;;;;;16.75;11.50;;;128.10;2252.80;;;;;;5067486;28;20025;-60
2022/02/28 00:14:53;;;;;;;17.55;11.73;;;128.20;2252.80;;;;;;5058867;28;20389;-58
2022/02/28 00:17:19;;;;;;;18.95;12.93;;;103.30;2227.20;;;;;;5060670;28;20025;-56
2022/02/28 00:19:44;;;;;;;17.05;12.00;;;103.30;2227.20;;;;;;5060271;28;20040;-56
2022/02/28 00:22:10;;;;;;;16.33;10.75;;;103.30;2227.20;;;;;;5058897;28;20029;-60
2022/02/28 00:24:36;;;;;;;19.05;12.35;;;128.10;2252.80;;;;;;5061328;28;20105;-59
2022/02/28 00:27:02;;;;;;;19.98;12.95;;;128.10;2252.80;;;;;;5059617;28;20029;-57
2022/02/28 00:29:27;;;;;;;18.65;14.15;;;128.20;2252.80;;;;;;5059450;28;20403;-59
2022/02/28 00:31:53;;;;;;;18.90;12.05;;;128.00;2252.80;;;;;;5060632;28;20059;-57
2022/02/28 00:34:19;;;;;;;16.67;11.02;;;128.00;2252.80;;;;;;5059258;28;20021;-56
2022/02/28 00:36:45;;;;;;;16.02;10.68;;;128.10;2252.80;;;;;;5060004;28;20076;-60
2022/02/28 00:39:11;;;;;;;18.38;11.15;;;128.20;2252.80;;;;;;5060613;28;20040;-60
2022/02/28 00:41:36;;;;;;;18.17;10.93;;;128.20;2252.80;;;;;;5058851;28;20025;-56
2022/02/28 00:44:02;;;;;;;17.83;11.80;;;103.30;2227.20;;;;;;5059845;28;20016;-62
2022/02/28 00:46:28;;;;;;;18.73;13.30;;;103.00;2227.20;;;;;;5050310;28;20492;-60
2022/02/28 00:48:54;;;;;;;21.92;12.05;;;103.20;2227.20;;;;;;5050158;28;20029;-59
2022/02/28 00:51:20;;;;;;;18.88;12.20;;;103.20;2227.20;;;;;;5053119;28;20039;-60
2022/02/28 00:53:45;;;;;;;18.38;10.90;;;103.30;2227.20;;;;;;5059179;28;20020;-58
2022/02/28 00:56:11;;;;;;;15.00;9.77;;;128.00;2252.80;;;;;;5059152;28;20033;-61
2022/02/28 00:58:37;;;;;;;16.08;11.88;;;128.20;2252.80;;;;;;5057523;28;20028;-57
2022/02/28 01:01:04;;;;;;;21.35;11.60;;;128.10;2252.80;;;;;;5061868;28;20556;-58
2022/02/28 01:03:30;;;;;;;17.02;10.40;;;103.20;2227.20;;;;;;5061857;28;20021;-60
2022/02/28 01:05:56;;;;;;;15.75;10.30;;;103.20;2227.20;;;;;;5061922;28;20075;-60
2022/02/28 01:08:22;;;;;;;13.88;10.95;;;103.20;2227.20;;;;;;5063377;28;20024;-59
2022/02/28 01:10:48;;;;;;;23.10;11.55;;;103.30;2227.20;;;;;;5063064;28;20441;-61
2022/02/28 01:13:14;;;;;;;19.08;15.10;;;103.30;2227.20;;;;;;5061731;28;20497;-60
2022/02/28 01:15:40;;;;;;;21.45;15.27;;;128.10;2252.80;;;;;;5063342;28;20024;-59
2022/02/28 01:18:08;;;;;;;17.15;11.95;;;128.30;2252.80;;;;;;5062287;28;20460;-56
2022/02/28 01:20:34;;;;;;;19.13;13.25;;;128.30;2252.80;;;;;;5061803;28;20079;-57
2022/02/28 01:23:01;;;;;;;23.58;17.25;;;128.40;2252.80;;;;;;5061325;28;20021;-57
2022/02/28 01:25:27;;;;;;;33.20;17.48;;;128.50;2252.80;;;;;;5062644;28;20364;-60
2022/02/28 01:27:53;;;;;;;22.45;14.18;;;128.50;2252.80;;;;;;5062719;28;20056;-60
2022/02/28 01:30:19;;;;;;;21.80;12.88;;;128.60;2252.80;;;;;;5061066;28;20028;-57
2022/02/28 01:32:45;;;;;;;17.30;11.82;;;128.70;2252.80;;;;;;5062874;28;20024;-58
2022/02/28 01:35:11;;;;;;;15.20;11.02;;;128.80;2252.80;;;;;;5062107;28;20525;-59
2022/02/28 01:37:38;;;;;;;20.90;12.38;;;128.70;2252.80;;;;;;5062120;28;20025;-59
2022/02/28 01:40:05;;;;;;;17.02;10.63;;;128.50;2252.80;;;;;;5063135;28;20020;-60
2022/02/28 01:42:32;;;;;;;18.75;11.85;;;128.50;2252.80;;;;;;5061036;28;20371;-61
2022/02/28 01:44:57;;;;;;;17.45;10.52;;;128.50;2252.80;;;;;;5061668;28;20024;-59
2022/02/28 01:47:23;;;;;;;19.70;12.50;;;128.40;2252.80;;;;;;5062624;28;20104;-58
2022/02/28 01:49:49;;;;;;;20.42;11.30;;;128.40;2252.80;;;;;;5060825;28;20021;-58
2022/02/28 01:52:15;;;;;;;15.60;10.88;;;128.30;2252.80;;;;;;5062002;28;20033;-60
2022/02/28 01:54:47;;;;;;;16.98;11.07;;;128.30;2252.80;;;;;;5062506;28;20491;-61
2022/02/28 01:57:13;;;;;;;16.25;12.48;;;128.30;2252.80;;;;;;5060979;28;20083;-59
2022/02/28 01:59:39;;;;;;;15.48;11.25;;;128.00;2252.80;;;;;;5061235;28;20536;-60
2022/02/28 02:02:05;;;;;;;17.27;11.77;;;128.00;2252.80;;;;;;5062767;28;20077;-58
2022/02/28 02:04:31;;;;;;;16.17;10.77;;;128.00;2252.80;;;;;;5060697;28;20032;-58
2022/02/28 02:06:57;;;;;;;15.95;11.40;;;128.20;2252.80;;;;;;5061623;28;20036;-61
2022/02/28 02:09:23;;;;;;;16.92;11.38;;;128.30;2252.80;;;;;;5062304;28;20041;-59
2022/02/28 02:11:49;;;;;;;17.65;11.00;;;128.20;2252.80;;;;;;5060422;28;20086;-59
2022/02/28 02:14:15;;;;;;;16.30;10.48;;;128.40;2252.80;;;;;;5061579;28;20021;-57
2022/02/28 02:16:41;;;;;;;16.13;10.68;;;128.50;2252.80;;;;;;5061912;28;20039;-60
2022/02/28 02:19:09;;;;;;;16.60;10.43;;;128.50;2252.80;;;;;;5060272;28;20036;-59
2022/02/28 02:21:35;;;;;;;15.70;10.68;;;128.40;2252.80;;;;;;5061636;28;20028;-58
2022/02/28 02:24:01;;;;;;;16.00;11.75;;;128.30;2252.80;;;;;;5061653;28;20111;-57
2022/02/28 02:26:26;;;;;;;15.48;11.23;;;128.30;2252.80;;;;;;5060063;28;20032;-61
2022/02/28 02:28:52;;;;;;;18.42;12.10;;;128.00;2252.80;;;;;;5061383;28;20049;-57
2022/02/28 02:31:18;;;;;;;17.05;12.55;;;103.30;2227.20;;;;;;5061421;28;20535;-60
2022/02/28 02:33:44;;;;;;;18.00;12.00;;;103.20;2227.20;;;;;;5060409;28;20459;-59
2022/02/28 02:36:11;;;;;;;16.88;11.43;;;103.20;2227.20;;;;;;5060219;28;20032;-58
2022/02/28 02:38:38;;;;;;;15.55;10.40;;;128.00;2252.80;;;;;;5061320;28;20016;-57
2022/02/28 02:41:07;;;;;;;15.63;10.60;;;128.00;2252.80;;;;;;5062070;28;20703;-60
2022/02/28 02:43:34;;;;;;;15.27;10.57;;;103.10;2227.20;;;;;;5060083;28;20021;-59
2022/02/28 02:46:00;;;;;;;16.15;10.63;;;103.30;2227.20;;;;;;5060355;28;20549;-58
2022/02/28 02:48:26;;;;;;;16.65;11.18;;;128.10;2252.80;;;;;;5062058;28;20111;-60
2022/02/28 02:50:52;;;;;;;16.83;12.50;;;103.20;2227.20;;;;;;5060159;28;20036;-58
2022/02/28 02:53:18;;;;;;;24.30;14.18;;;103.20;2227.20;;;;;;5060943;28;20028;-58
2022/02/28 02:55:46;;;;;;;15.25;11.00;;;103.20;2227.20;;;;;;5061853;28;20028;-58
2022/02/28 02:58:14;;;;;;;13.13;9.77;;;103.30;2227.20;;;;;;5059838;28;20107;-58
2022/02/28 03:00:44;;;;;;;15.40;10.70;;;103.30;2227.20;;;;;;5062340;28;20033;-60
2022/02/28 03:03:14;;;;;;;14.88;9.80;;;128.00;2252.80;;;;;;5054040;28;20032;-58
2022/02/28 03:05:40;;;;;;;11.80;8.75;;;103.30;2227.20;;;;;;5053899;28;20095;-59
2022/02/28 03:08:05;;;;;;;15.98;10.13;;;103.30;2227.20;;;;;;5053647;28;20060;-58
2022/02/28 03:10:31;;;;;;;14.38;9.00;;;103.30;2227.20;;;;;;5053014;28;20039;-60
2022/02/28 03:12:57;;;;;;;14.98;10.38;;;103.30;2227.20;;;;;;5053370;28;20036;-63
2022/02/28 03:15:23;;;;;;;12.25;9.00;;;103.30;2227.20;;;;;;5054008;28;20409;-64
2022/02/28 03:17:49;;;;;;;13.23;9.63;;;103.10;2227.20;;;;;;5054365;28;20028;-59
2022/02/28 03:20:15;;;;;;;11.73;8.57;;;103.10;2227.20;;;;;;5053568;28;20056;-57
2022/02/28 03:22:40;;;;;;;14.25;9.63;;;103.10;2227.20;;;;;;5052492;28;20383;-59
2022/02/28 03:25:06;;;;;;;14.93;9.00;;;128.00;2252.80;;;;;;5050865;28;20468;-60
2022/02/28 03:27:32;;;;;;;16.13;10.65;;;103.30;2227.20;;;;;;5050174;28;20036;-59
2022/02/28 03:29:58;;;;;;;22.25;12.43;;;128.10;2252.80;;;;;;5050603;28;20028;-59
2022/02/28 03:32:24;;;;;;;14.65;10.32;;;128.00;2252.80;;;;;;5050852;28;20246;-60
2022/02/28 03:34:51;;;;;;;42.28;21.23;;;128.20;2252.80;;;;;;5050287;28;20032;-59
2022/02/28 03:37:17;;;;;;;22.65;14.93;;;128.30;2252.80;;;;;;5050720;28;20025;-58
2022/02/28 03:39:42;;;;;;;23.58;14.38;;;128.30;2252.80;;;;;;5050571;28;20035;-58
2022/02/28 03:42:08;;;;;;;38.80;20.80;;;128.40;2252.80;;;;;;5051311;28;20447;-58
2022/02/28 03:44:34;;;;;;;18.88;12.68;;;128.30;2252.80;;;;;;5051463;28;20037;-57
2022/02/28 03:47:00;;;;;;;16.88;9.45;;;128.30;2252.80;;;;;;5051309;28;20029;-58
2022/02/28 03:49:25;;;;;;;22.98;12.43;;;128.30;2252.80;;;;;;5050776;28;20102;-57
2022/02/28 03:51:51;;;;;;;22.58;11.40;;;128.30;2252.80;;;;;;5050741;28;20044;-58
2022/02/28 03:54:17;;;;;;;16.50;10.60;;;128.30;2252.80;;;;;;5050854;28;20032;-60
2022/02/28 03:56:44;;;;;;;17.88;9.95;;;128.20;2252.80;;;;;;5050032;28;20130;-61
2022/02/28 03:59:11;;;;;;;25.30;15.10;;;128.20;2252.80;;;;;;5050073;28;20029;-60
2022/02/28 04:01:37;;;;;;;11.98;8.68;;;128.10;2252.80;;;;;;5050111;28;20502;-60
2022/02/28 04:04:04;;;;;;;17.35;10.43;;;128.00;2252.80;;;;;;5049710;28;20057;-58
2022/02/28 04:06:31;;;;;;;18.08;11.38;;;103.30;2227.20;;;;;;5049737;28;20033;-62
2022/02/28 04:08:58;;;;;;;17.80;10.73;;;103.30;2227.20;;;;;;5050009;28;20460;-61
2022/02/28 04:11:25;;;;;;;13.82;12.13;;;128.10;2252.80;;;;;;5049965;28;20125;-60
2022/02/28 04:13:50;;;;;;;27.08;17.58;;;128.10;2252.80;;;;;;5049751;28;20036;-62
2022/02/28 04:16:16;;;;;;;23.23;15.55;;;128.00;2252.80;;;;;;5049679;28;20029;-59
2022/02/28 04:18:42;;;;;;;15.05;11.27;;;128.10;2252.80;;;;;;5049367;28;20025;-58
2022/02/28 04:21:08;;;;;;;11.10;7.57;;;128.20;2252.80;;;;;;5049570;28;20391;-58
2022/02/28 04:23:34;;;;;;;11.15;7.22;;;128.20;2252.80;;;;;;5049641;28;20028;-63
2022/02/28 04:26:00;;;;;;;13.27;10.43;;;128.10;2252.80;;;;;;5049440;28;20025;-58
2022/02/28 04:28:26;;;;;;;23.58;14.23;;;128.10;2252.80;;;;;;5049352;28;20053;-60
2022/02/28 04:30:52;;;;;;;26.98;17.85;;;128.20;2252.80;;;;;;5049254;28;20044;-60
2022/02/28 04:33:18;;;;;;;37.10;22.70;;;128.30;2252.80;;;;;;5049866;28;20446;-59
2022/02/28 04:35:44;;;;;;;41.85;27.08;;;128.40;2252.80;;;;;;5048814;28;20119;-58
2022/02/28 04:38:10;;;;;;;21.98;17.50;;;128.40;2252.80;;;;;;5049262;28;20062;-60
2022/02/28 04:40:36;;;;;;;27.10;23.48;;;128.40;2252.80;;;;;;5049566;28;20053;-59
2022/02/28 04:43:02;;;;;;;32.58;29.25;;;128.20;2252.80;;;;;;5049368;28;20039;-57
2022/02/28 04:45:28;;;;;;;20.40;16.77;;;128.20;2252.80;;;;;;5049511;28;20021;-59
2022/02/28 04:47:54;;;;;;;17.85;15.93;;;128.30;2252.80;;;;;;5049644;28;20035;-59
2022/02/28 04:50:20;;;;;;;15.70;14.02;;;128.20;2252.80;;;;;;5049082;28;20045;-57
2022/02/28 04:52:46;;;;;;;26.27;15.73;;;128.20;2252.80;;;;;;5049463;28;20067;-59
2022/02/28 04:55:12;;;;;;;24.27;18.50;;;128.20;2252.80;;;;;;5049473;28;20021;-57
2022/02/28 04:57:40;;;;;;;24.45;14.85;;;128.40;2252.80;;;;;;5049236;28;20467;-59
2022/02/28 05:00:07;;;;;;;20.42;15.95;;;128.20;2252.80;;;;;;5049342;28;20025;-61
2022/02/28 05:02:33;;;;;;;22.95;19.70;;;128.10;2252.80;;;;;;5049127;28;20043;-59
2022/02/28 05:05:00;;;;;;;13.55;10.07;;;128.30;2252.80;;;;;;5047618;28;20470;-60
2022/02/28 05:07:26;;;;;;;19.88;13.82;;;128.00;2252.80;;;;;;5049533;28;20029;-57
2022/02/28 05:09:52;;;;;;;22.90;14.68;;;128.30;2252.80;;;;;;5049042;28;20029;-61
2022/02/28 05:12:18;;;;;;;23.42;15.63;;;128.40;2252.80;;;;;;5049464;28;20403;-59
2022/02/28 05:14:43;;;;;;;25.08;18.10;;;128.40;2252.80;;;;;;5049118;28;20029;-58
2022/02/28 05:17:09;;;;;;;20.13;12.85;;;128.40;2252.80;;;;;;5051148;28;20032;-59
2022/02/28 05:19:35;;;;;;;17.20;12.85;;;128.40;2252.80;;;;;;5051145;28;20056;-59
2022/02/28 05:22:04;;;;;;;12.35;9.50;;;128.30;2252.80;;;;;;5051814;28;20049;-62
2022/02/28 05:24:31;;;;;;;13.75;12.07;;;128.20;2252.80;;;;;;5049148;28;20032;-62
2022/02/28 05:26:57;;;;;;;10.35;7.82;;;128.20;2252.80;;;;;;5048972;28;20154;-57
2022/02/28 05:29:23;;;;;;;15.15;9.38;;;128.00;2252.80;;;;;;5048537;28;20132;-58
2022/02/28 05:31:48;;;;;;;23.42;21.23;;;128.10;2252.80;;;;;;5048863;28;20170;-59
2022/02/28 05:34:14;;;;;;;13.57;10.27;;;103.30;2227.20;;;;;;5048479;28;20475;-61
2022/02/28 05:36:40;;;;;;;10.73;8.60;;;103.10;2227.20;;;;;;5050957;28;20032;-65
2022/02/28 05:39:06;;;;;;;13.70;9.13;;;103.20;2227.20;;;;;;5055632;28;20529;-58
2022/02/28 05:41:31;;;;;;;13.52;8.93;;;103.10;2227.20;;;;;;5052673;28;20044;-63
2022/02/28 05:43:57;;;;;;;11.77;9.05;;;103.00;2227.20;;;;;;5052901;28;20025;-61
2022/02/28 05:46:23;;;;;;;17.52;10.93;;;102.80;2227.20;;;;;;5055051;28;20031;-64
2022/02/28 05:48:49;;;;;;;16.50;10.30;;;103.00;2227.20;;;;;;5054269;28;20369;-58
2022/02/28 05:51:14;;;;;;;16.15;11.20;;;103.00;2227.20;;;;;;5052360;28;20047;-56
2022/02/28 05:53:40;;;;;;;17.58;11.30;;;103.00;2227.20;;;;;;5057940;28;20028;-60
2022/02/28 05:56:06;;;;;;;17.75;11.73;;;103.00;2227.20;;;;;;5072436;28;20032;-59
2022/02/28 05:58:32;;;;;;;18.02;13.75;;;102.90;2227.20;;;;;;5066946;28;20036;-60
2022/02/28 06:00:58;;;;;;;19.70;12.15;;;103.00;2227.20;;;;;;5057172;28;20044;-60
2022/02/28 06:03:24;;;;;;;17.50;12.10;;;103.10;2227.20;;;;;;5070751;28;20036;-59
2022/02/28 06:05:50;;;;;;;15.98;11.07;;;103.30;2227.20;;;;;;5060515;28;20586;-62
2022/02/28 06:08:15;;;;;;;16.27;10.65;;;128.10;2252.80;;;;;;5063412;28;20020;-62
2022/02/28 06:10:41;;;;;;;16.67;11.43;;;128.00;2252.80;;;;;;5069320;28;20052;-61
2022/02/28 06:13:07;;;;;;;16.85;10.27;;;128.10;2252.80;;;;;;5060621;28;20021;-60
2022/02/28 06:15:33;;;;;;;17.25;11.02;;;128.20;2252.80;;;;;;5061817;28;20471;-55
2022/02/28 06:18:00;;;;;;;16.60;11.20;;;103.30;2227.20;;;;;;5061787;28;20029;-61
2022/02/28 06:20:27;;;;;;;17.90;12.32;;;103.30;2227.20;;;;;;5055321;28;20071;-65
2022/02/28 06:22:52;;;;;;;17.40;11.80;;;103.30;2227.20;;;;;;5052630;28;20025;-63
2022/02/28 06:25:18;;;;;;;23.02;13.23;;;128.10;2252.80;;;;;;5052906;28;20483;-61
2022/02/28 06:27:44;;;;;;;28.35;16.60;;;128.30;2252.80;;;;;;5057331;28;20046;-62
2022/02/28 06:30:10;;;;;;;19.95;13.02;;;128.30;2252.80;;;;;;5061011;28;20061;-63
2022/02/28 06:32:36;;;;;;;23.25;16.05;;;128.40;2252.80;;;;;;5060526;28;20038;-63
2022/02/28 06:35:03;;;;;;;84.80;53.53;;;128.30;2252.80;;;;;;5062511;28;20020;-65
2022/02/28 06:37:29;;;;;;;42.95;32.45;;;128.20;2252.80;;;;;;5060202;28;20127;-61
2022/02/28 06:39:55;;;;;;;49.22;36.97;;;128.20;2252.80;;;;;;5061490;28;20526;-64
2022/02/28 06:42:21;;;;;;;412.27;305.42;;;128.30;2252.80;;;;;;5061406;28;20057;-63
2022/02/28 06:44:46;;;;;;;359.48;271.25;;;128.40;2252.80;;;;;;5059773;28;20075;-62
2022/02/28 06:47:12;;;;;;;115.97;75.00;;;128.40;2252.80;;;;;;5060263;28;20100;-64
2022/02/28 06:49:38;;;;;;;110.10;72.57;;;128.60;2252.80;;;;;;5060590;28;20677;-62
2022/02/28 06:52:04;;;;;;;39.60;30.55;;;128.80;2252.80;;;;;;5061627;28;20029;-60
2022/02/28 06:54:31;;;;;;;139.23;92.63;;;128.70;2252.80;;;;;;5061425;28;20029;-63
2022/02/28 06:56:57;;;;;;;73.13;45.75;;;128.90;2252.80;;;;;;5060616;28;20036;-62
2022/02/28 06:59:23;;;;;;;65.93;39.50;;;153.70;2252.80;;;;;;5058800;28;20020;-62
2022/02/28 07:01:49;;;;;;;28.73;19.83;;;153.80;2252.80;;;;;;5051681;28;20028;-62
2022/02/28 07:04:15;;;;;;;38.67;26.45;;;153.80;2252.80;;;;;;5051876;28;20108;-61
2022/02/28 07:06:40;;;;;;;54.05;39.83;;;153.90;2252.80;;;;;;5051860;28;20017;-62
2022/02/28 07:09:07;;;;;;;27.42;19.88;;;154.00;2252.80;;;;;;5052005;28;20018;-62
2022/02/28 07:11:34;;;;;;;26.02;15.52;;;154.10;2252.80;;;;;;5051663;28;20065;-62
2022/02/28 07:14:00;;;;;;;25.13;15.52;;;154.30;2252.80;;;;;;5051609;28;20032;-63
2022/02/28 07:16:26;;;;;;;17.02;11.55;;;;;;;;;;5051936;28;20028;-63
2022/02/28 07:18:52;;;;;;;17.48;12.02;;;;;;;;;;5051509;28;20075;-63
2022/02/28 07:21:19;;;;;;;22.08;12.50;;;;;;;;;;5051792;28;20021;-60
2022/02/28 07:23:45;;;;;;;16.20;12.70;;;;;;;;;;5051647;28;20479;-63
2022/02/28 07:26:11;;;;;;;21.50;12.88;;;;;;;;;;5051454;28;20417;-61
2022/02/28 07:28:37;;;;;;;18.17;11.75;;;154.20;2252.80;;;;;;5051345;28;20487;-62
2022/02/28 07:31:03;;;;;;;18.45;12.02;;;154.20;2252.80;;;;;;5051121;28;20043;-60
2022/02/28 07:33:29;;;;;;;17.40;12.10;;;154.00;2252.80;;;;;;5051366;28;20029;-61
2022/02/28 07:35:54;;;;;;;16.85;11.90;;;154.10;2252.80;;;;;;5051343;28;20434;-62
2022/02/28 07:38:20;;;;;;;27.02;21.98;;;154.10;2252.80;;;;;;5051215;28;20032;-62
2022/02/28 07:40:46;;;;;;;19.52;12.75;;;154.10;2252.80;;;;;;5051459;28;20032;-63
2022/02/28 07:43:12;;;;;;;18.67;11.52;;;154.30;2252.80;;;;;;5051100;28;20379;-62
2022/02/28 07:45:37;;;;;;;18.85;13.63;;;154.20;2252.80;;;;;;5051262;28;20029;-61
2022/02/28 07:48:04;;;;;;;19.38;14.75;;;154.50;2252.80;;;;;;5050943;28;20021;-59
2022/02/28 07:50:29;;;;;;;19.20;13.68;;;154.30;2252.80;;;;;;5049615;28;20443;-62
2022/02/28 07:52:56;;;;;;;21.95;14.45;;;;;;;;;;5051099;28;20114;-61
2022/02/28 07:55:21;;;;;;;17.67;13.23;;;179.60;2252.80;;;;;;5050941;28;20025;-62
2022/02/28 07:57:47;;;;;;;20.80;13.98;;;179.70;2252.80;;;;;;5051148;28;20387;-62
2022/02/28 08:00:13;;;;;;;20.10;14.65;;;179.70;2252.80;;;;;;5050749;28;20025;-61
2022/02/28 08:02:39;;;;;;;25.88;19.33;;;179.70;2252.80;;;;;;5050964;28;20035;-63
2022/02/28 08:05:06;;;;;;;563.67;419.83;;;180.00;2252.80;;;;;;5050824;28;20013;-62
2022/02/28 08:07:32;;;;;;;34.15;29.38;;;;;;;;;;5050796;28;20083;-61
2022/02/28 08:09:58;;;;;;;20.02;14.68;;;;;;;;;;5050948;28;20017;-63
2022/02/28 08:12:28;;;;;;;19.27;14.50;;;256.00;2227.20;;;;;;5050286;28;20037;-62
2022/02/28 08:14:54;;;;;;;15.80;12.60;;;231.30;2201.60;;;;;;5050541;28;20017;-64
2022/02/28 08:17:20;;;;;;;21.85;15.50;;;231.10;2252.80;;;;;;5050646;28;20025;-63
2022/02/28 08:19:46;;;;;;;19.83;13.80;;;256.90;2073.60;;;;;;5050499;28;20017;-63
2022/02/28 08:22:11;;;;;;;23.88;16.10;;;256.70;2099.20;;;;;;5050427;28;20112;-63
2022/02/28 08:24:37;;;;;;;19.65;13.25;;;256.90;2048.00;;;;;;5050602;28;20052;-65
2022/02/28 08:27:03;;;;;;;27.77;24.88;;;281.70;1996.80;;;;;;5050170;28;20032;-62
2022/02/28 08:29:29;;;;;;;19.48;15.05;;;256.70;1996.80;;;;;;5050160;28;20515;-61
2022/02/28 08:31:54;;;;;;;17.80;14.27;;;256.80;1996.80;;;;;;5050263;28;20392;-63
2022/02/28 08:34:20;;;;;;;17.92;13.82;;;281.80;2022.40;;;;;;5049189;28;20175;-64
2022/02/28 08:36:46;;;;;;;15.13;11.82;;;307.30;1971.20;;;;;;5050259;28;20394;-61
2022/02/28 08:39:12;;;;;;;13.82;12.10;;;;;;;;;;5050199;28;20040;-63
2022/02/28 08:41:38;;;;;;;17.80;12.30;;;;;;;;;;5050247;28;20415;-63
2022/02/28 08:44:07;;;;;;;16.70;12.63;;;;;;;;;;5050344;28;20029;-64
2022/02/28 08:46:37;;;;;;;17.45;13.25;;;333.40;1715.20;;;;;;5050078;28;20025;-62
2022/02/28 08:49:04;;;;;;;18.23;12.55;;;358.40;1664.00;;;;;;5050064;28;20021;-60
2022/02/28 08:51:30;;;;;;;14.82;11.95;;;359.00;1638.40;;;;;;5049756;28;20063;-63
2022/02/28 08:53:56;;;;;;;14.95;11.60;;;384.30;1561.60;;;;;;5050300;28;20601;-62
2022/02/28 08:56:22;;;;;;;18.35;14.73;;;384.00;1561.60;;;;;;5050060;28;20533;-66
2022/02/28 08:58:48;;;;;;;14.98;13.38;;;359.20;1536.00;;;;;;5050141;28;20044;-62
2022/02/28 09:01:14;;;;;;;15.93;13.52;;;358.40;1638.40;;;;;;5048955;28;20037;-62
2022/02/28 09:03:40;;;;;;;15.85;13.35;;;;;;;;;;5049828;28;20017;-62
2022/02/28 09:06:06;;;;;;;14.63;12.60;;;;;;;;;;5049828;28;20029;-62
2022/02/28 09:08:32;;;;;;;17.30;13.48;;;;;;;;;;5049805;28;20021;-63
2022/02/28 09:10:58;;;;;;;17.45;13.93;;;;;;;;;;5049949;28;20081;-63
2022/02/28 09:13:26;;;;;;;17.90;14.48;;;;;;;;;;5049738;28;20029;-61
2022/02/28 09:15:52;;;;;;;18.25;13.88;;;;;;;;;;5049750;28;20379;-63
2022/02/28 09:18:18;;;;;;;23.15;16.10;;;;;;;;;;5050144;28;20025;-61
2022/02/28 09:20:44;;;;;;;28.15;19.30;;;;;;;;;;5049967;28;20021;-62
2022/02/28 09:23:10;;;;;;;17.02;14.77;;;;;;;;;;5053714;28;20036;-61
2022/02/28 09:25:36;;;;;;;35.08;21.52;;;281.80;1792.00;;;;;;5053943;28;20043;-61
2022/02/28 09:28:02;;;;;;;63.47;36.53;;;281.70;2252.80;;;;;;5053366;28;20045;-61
2022/02/28 09:30:28;;;;;;;16.77;13.45;;;256.50;1843.20;;;;;;5053602;28;20098;-63
2022/02/28 09:32:54;;;;;;;18.27;14.00;;;256.20;1920.00;;;;;;5053546;28;20112;-62
2022/02/28 09:35:20;;;;;;;20.67;14.75;;;;;;;;;;5053629;28;20064;-62
2022/02/28 09:37:46;;;;;;;18.52;14.27;;;;;;;;;;5053811;28;20112;-61
2022/02/28 09:40:12;;;;;;;21.77;16.88;;;;;;;;;;5053428;28;20552;-62
2022/02/28 09:42:39;;;;;;;16.30;12.95;;;;;;;;;;5053611;28;20031;-62
2022/02/28 09:45:06;;;;;;;20.58;16.38;;;282.00;1843.20;;;;;;5053543;28;20025;-62
2022/02/28 09:47:32;;;;;;;18.70;14.05;;;282.00;1894.40;;;;;;5053197;28;20071;-62
2022/02/28 09:49:58;;;;;;;18.27;14.48;;;256.90;1894.40;;;;;;5053273;28;20098;-60
2022/02/28 09:52:24;;;;;;;24.05;17.90;;;256.50;1894.40;;;;;;5053113;28;20150;-61
2022/02/28 09:54:51;;;;;;;17.27;11.60;;;256.60;1894.40;;;;;;5053240;28;20379;-62
2022/02/28 09:57:21;;;;;;;21.25;12.18;;;256.50;1843.20;;;;;;5053385;28;20029;-65
2022/02/28 09:59:47;;;;;;;16.60;11.18;;;256.20;1868.80;;;;;;5053508;28;20021;-61
2022/02/28 10:02:13;;;;;;;11.95;9.77;;;;;;;;;;5052852;28;20036;-63
2022/02/28 10:04:39;;;;;;;16.15;9.77;;;;;;;;;;5053049;28;20114;-63
2022/02/28 10:07:22;;;;;;;22.00;15.77;;;;;;;;;;5052991;28;20037;-62
2022/02/28 10:10:01;;;;;;;13.63;8.27;;;;;;;;;;5053297;28;20104;-61
2022/02/28 10:12:31;;;;;;;13.35;8.60;;;231.00;1766.40;;;;;;5052833;28;20037;-60
2022/02/28 10:15:24;;;;;;;12.27;8.02;;;231.00;1766.40;;;;;;5053022;28;20563;-60
2022/02/28 10:18:04;;;;;;;15.27;9.85;;;230.80;1766.40;;;;;;5051885;28;20113;-63
2022/02/28 10:20:38;;;;;;;15.70;9.57;;;230.70;1843.20;;;;;;5052717;28;20025;-62
2022/02/28 10:23:16;;;;;;;14.63;9.57;;;231.00;1817.60;;;;;;5060189;28;20029;-61
2022/02/28 10:25:43;;;;;;;11.32;9.23;;;231.00;1792.00;;;;;;5062356;28;20029;-62
2022/02/28 10:28:24;;;;;;;24.05;16.38;;;231.00;1843.20;;;;;;5060939;28;20984;-62
2022/02/28 10:31:02;;;;;;;12.35;8.95;;;256.00;1843.20;;;;;;5061117;28;20055;-63
2022/02/28 10:33:46;;;;;;;13.10;8.77;;;256.00;1843.20;;;;;;5059740;28;20116;-62
2022/02/28 10:36:21;;;;;;;14.80;9.85;;;231.00;1843.20;;;;;;5059346;28;20503;-62
2022/02/28 10:38:57;;;;;;;12.20;9.75;;;230.90;1868.80;;;;;;5062062;28;20027;-62
2022/02/28 10:41:26;;;;;;;22.73;13.70;;;231.20;1843.20;;;;;;5072146;28;20520;-63
2022/02/28 10:43:56;;;;;;;12.77;9.68;;;231.30;1843.20;;;;;;5072184;28;20063;-66
2022/02/28 10:46:32;;;;;;;31.38;17.55;;;231.30;1843.20;;;;;;5072158;28;20498;-63
2022/02/28 10:49:02;;;;;;;17.75;12.75;;;256.10;1817.60;;;;;;5072352;28;20067;-62
2022/02/28 10:51:29;;;;;;;15.57;11.32;;;256.30;1792.00;;;;;;5072231;28;20375;-62
2022/02/28 10:54:08;;;;;;;13.43;9.55;;;256.00;1817.60;;;;;;5072485;28;20029;-62
2022/02/28 10:56:57;;;;;;;25.73;16.50;;;231.30;1817.60;;;;;;5071772;28;20383;-61
2022/02/28 10:59:28;;;;;;;16.52;11.93;;;256.10;1843.20;;;;;;5071784;28;20036;-63
2022/02/28 11:01:55;;;;;;;26.60;19.80;;;256.10;1843.20;;;;;;5071936;28;20115;-62
2022/02/28 11:04:30;;;;;;;25.02;19.88;;;256.10;1843.20;;;;;;5072172;28;20036;-62
2022/02/28 11:06:56;;;;;;;18.33;12.10;;;256.00;1868.80;;;;;;5071926;28;20020;-62
2022/02/28 11:09:46;;;;;;;17.58;10.10;;;256.00;1843.20;;;;;;5071861;28;20165;-63
2022/02/28 11:12:32;;;;;;;19.50;12.45;;;256.00;1868.80;;;;;;5071676;28;20047;-62
2022/02/28 11:15:06;;;;;;;22.48;12.48;;;230.90;1843.20;;;;;;5072025;28;20029;-63
2022/02/28 11:17:34;;;;;;;34.33;25.08;;;231.30;1817.60;;;;;;5071494;28;20387;-62
2022/02/28 11:20:06;;;;;;;26.42;17.77;;;231.10;1894.40;;;;;;5071520;28;20025;-63
2022/02/28 11:22:32;;;;;;;27.90;18.42;;;231.10;1894.40;;;;;;5071325;28;20378;-62
2022/02/28 11:24:58;;;;;;;52.85;37.50;;;231.00;1894.40;;;;;;5071655;28;20500;-61
2022/02/28 11:27:25;;;;;;;52.75;35.80;;;231.10;1894.40;;;;;;5070979;28;20028;-62
2022/02/28 11:29:57;;;;;;;40.85;25.95;;;231.20;1894.40;;;;;;5071342;28;20089;-62
2022/02/28 11:32:24;;;;;;;36.05;26.35;;;256.00;1843.20;;;;;;5071259;28;20450;-62
2022/02/28 11:34:51;;;;;;;15.95;10.98;;;231.20;1868.80;;;;;;5071422;28;20134;-62
2022/02/28 11:37:25;;;;;;;14.70;10.50;;;230.90;1843.20;;;;;;5071403;28;20051;-62
2022/02/28 11:40:01;;;;;;;13.45;9.82;;;230.80;1843.20;;;;;;5071095;28;20450;-63
2022/02/28 11:43:12;;;;;;;13.13;10.48;;;230.70;1843.20;;;;;;5071301;28;20143;-62
2022/02/28 11:45:51;;;;;;;22.23;15.38;;;231.00;1817.60;;;;;;5071124;28;20016;-62
2022/02/28 11:48:22;;;;;;;22.52;14.40;;;230.90;1843.20;;;;;;5071308;28;20025;-62
2022/02/28 11:50:52;;;;;;;45.38;29.85;;;231.00;1843.20;;;;;;5071052;28;20153;-62
2022/02/28 11:53:42;;;;;;;30.05;18.58;;;231.00;1868.80;;;;;;5071368;28;20020;-62
2022/02/28 11:56:38;;;;;;;24.08;13.90;;;230.70;1894.40;;;;;;5068304;28;20117;-62
2022/02/28 11:59:26;;;;;;;29.55;18.42;;;205.70;1843.20;;;;;;5049861;28;20041;-62
2022/02/28 12:01:55;;;;;;;26.50;18.63;;;205.70;1843.20;;;;;;5066508;28;20043;-61
2022/02/28 12:04:29;;;;;;;33.92;20.70;;;230.50;1817.60;;;;;;5068562;28;20573;-67
2022/02/28 12:07:04;;;;;;;29.80;17.98;;;230.60;1817.60;;;;;;5069605;28;20025;-62
2022/02/28 12:09:38;;;;;;;47.88;32.13;;;205.70;1792.00;;;;;;5051879;28;20430;-65
2022/02/28 12:12:23;;;;;;;37.28;26.65;;;205.20;1843.20;;;;;;5069116;28;20062;-65